createdAt,value
2019-03-03T00:00:44.615Z,20.87
2019-03-03T00:03:13.275Z,21.83
2019-03-03T00:05:42.058Z,22.23
2019-03-03T00:08:10.676Z,21.67
2019-03-03T00:10:39.251Z,21.87
2019-03-03T00:13:07.897Z,23.60
2019-03-03T00:15:37.114Z,20.67
2019-03-03T00:18:05.823Z,22.83
2019-03-03T00:20:34.445Z,22.00
2019-03-03T00:23:03.120Z,22.67
2019-03-03T00:25:31.663Z,20.97
2019-03-03T00:28:00.507Z,22.50
2019-03-03T00:30:29.149Z,23.53
2019-03-03T00:32:57.790Z,21.67
2019-03-03T00:35:26.327Z,23.17
2019-03-03T00:37:59.437Z,22.63
2019-03-03T00:40:35.880Z,23.00
2019-03-03T00:43:22.357Z,21.13
2019-03-03T00:46:09.859Z,22.50
2019-03-03T00:48:55.301Z,22.73
2019-03-03T00:51:41.386Z,23.07
2019-03-03T00:54:11.625Z,24.60
2019-03-03T00:56:41.816Z,23.77
2019-03-03T00:59:28.635Z,21.80
2019-03-03T01:01:58.880Z,22.83
2019-03-03T01:04:29.032Z,23.80
2019-03-03T01:07:08.071Z,24.43
2019-03-03T01:09:53.493Z,24.80
2019-03-03T01:12:23.823Z,24.33
2019-03-03T01:15:05.952Z,26.43
2019-03-03T01:17:38.825Z,25.50
2019-03-03T01:20:11.554Z,25.23
2019-03-03T01:22:41.868Z,26.17
2019-03-03T01:25:10.640Z,26.57
2019-03-03T01:27:39.494Z,25.53
2019-03-03T01:30:11.433Z,26.20
2019-03-03T01:32:40.129Z,25.00
2019-03-03T01:35:10.597Z,25.50
2019-03-03T01:37:39.221Z,25.63
2019-03-03T01:40:09.955Z,26.90
2019-03-03T01:42:38.588Z,25.10
2019-03-03T01:45:12.977Z,26.17
2019-03-03T01:47:41.745Z,27.70
2019-03-03T01:50:12.082Z,26.27
2019-03-03T01:52:40.971Z,26.40
2019-03-03T01:55:11.296Z,28.17
2019-03-03T01:57:40.244Z,26.90
2019-03-03T02:00:22.967Z,27.20
2019-03-03T02:02:51.609Z,27.23
2019-03-03T02:05:20.173Z,26.87
2019-03-03T02:07:48.991Z,27.63
2019-03-03T02:10:19.830Z,27.17
2019-03-03T02:12:48.553Z,26.73
2019-03-03T02:15:17.332Z,29.77
2019-03-03T02:17:45.969Z,28.67
2019-03-03T02:20:14.559Z,29.40
2019-03-03T02:22:43.613Z,28.10
2019-03-03T02:25:14.145Z,27.90
2019-03-03T02:27:42.835Z,28.07
2019-03-03T02:30:19.386Z,27.27
2019-03-03T02:32:49.027Z,27.37
2019-03-03T02:35:17.896Z,29.40
2019-03-03T02:37:46.900Z,28.03
2019-03-03T02:40:17.758Z,28.23
2019-03-03T02:42:46.599Z,29.63
2019-03-03T02:45:16.517Z,31.23
2019-03-03T02:47:45.208Z,29.97
2019-03-03T02:50:15.395Z,27.47
2019-03-03T02:52:44.681Z,31.50
2019-03-03T02:55:14.798Z,31.07
2019-03-03T02:57:43.446Z,31.03
2019-03-03T03:00:23.424Z,30.53
2019-03-03T03:02:53.961Z,30.00
2019-03-03T03:05:42.256Z,29.23
2019-03-03T03:08:12.511Z,30.97
2019-03-03T03:10:42.701Z,29.33
2019-03-03T03:13:29.650Z,30.73
2019-03-03T03:16:08.665Z,30.80
2019-03-03T03:18:39.011Z,32.37
2019-03-03T03:21:09.637Z,31.20
2019-03-03T03:23:46.037Z,30.80
2019-03-03T03:26:24.978Z,30.33
2019-03-03T03:28:58.170Z,31.50
2019-03-03T03:31:37.177Z,31.53
2019-03-03T03:34:13.424Z,31.77
2019-03-03T03:36:58.909Z,30.50
2019-03-03T03:39:31.981Z,31.00
2019-03-03T03:42:11.114Z,30.57
2019-03-03T03:44:44.237Z,31.73
2019-03-03T03:47:17.647Z,33.10
2019-03-03T03:50:04.366Z,31.33
2019-03-03T03:52:34.748Z,31.80
2019-03-03T03:55:14.919Z,30.17
2019-03-03T03:57:48.009Z,31.10
2019-03-03T04:00:33.551Z,31.97
2019-03-03T04:03:06.240Z,29.67
2019-03-03T04:05:39.836Z,31.83
2019-03-03T04:08:13.091Z,30.90
2019-03-03T04:11:01.459Z,29.60
2019-03-03T04:13:34.132Z,29.60
2019-03-03T04:16:16.547Z,29.20
2019-03-03T04:18:52.771Z,29.13
2019-03-03T04:21:25.969Z,29.60
2019-03-03T04:24:02.316Z,28.60
2019-03-03T04:26:35.626Z,27.60
2019-03-03T04:29:14.519Z,27.70
2019-03-03T04:31:47.731Z,25.97
2019-03-03T04:34:32.941Z,27.80
2019-03-03T04:37:21.553Z,27.00
2019-03-03T04:39:51.868Z,25.83
2019-03-03T04:42:38.366Z,26.50
2019-03-03T04:45:12.223Z,25.80
2019-03-03T04:47:54.788Z,25.50
2019-03-03T04:50:28.052Z,24.80
2019-03-03T04:53:10.402Z,24.27
2019-03-03T04:55:43.661Z,26.67
2019-03-03T04:58:23.127Z,25.27
2019-03-03T05:01:09.669Z,25.87
2019-03-03T05:03:45.795Z,25.27
2019-03-03T05:06:22.278Z,23.77
2019-03-03T05:08:52.603Z,23.43
2019-03-03T05:12:15.601Z,22.83
2019-03-03T05:14:44.777Z,22.47
2019-03-03T05:17:15.025Z,21.30
2019-03-03T05:19:45.344Z,22.57
2019-03-03T05:22:13.936Z,22.13
2019-03-03T05:24:42.543Z,20.93
2019-03-03T05:27:11.102Z,20.10
2019-03-03T05:29:40.957Z,18.93
2019-03-03T05:32:09.627Z,20.10
2019-03-03T05:34:38.228Z,20.40
2019-03-03T05:37:06.783Z,19.10
2019-03-03T05:39:35.436Z,20.53
2019-03-03T05:42:04.033Z,19.50
2019-03-03T05:44:32.734Z,19.20
2019-03-03T05:47:01.272Z,19.97
2019-03-03T05:49:29.929Z,17.83
2019-03-03T05:51:58.568Z,17.77
2019-03-03T05:54:27.491Z,18.17
2019-03-03T05:56:56.065Z,16.50
2019-03-03T05:59:24.729Z,16.43
2019-03-03T06:01:53.259Z,15.53
2019-03-03T06:04:21.926Z,15.27
2019-03-03T06:06:50.501Z,15.17
2019-03-03T06:09:19.330Z,14.67
2019-03-03T06:11:47.837Z,13.90
2019-03-03T06:14:16.455Z,13.10
2019-03-03T06:16:44.992Z,12.47
2019-03-03T06:19:13.606Z,11.73
2019-03-03T06:21:42.304Z,12.40
2019-03-03T06:24:10.868Z,11.83
2019-03-03T06:26:39.477Z,11.67
2019-03-03T06:29:08.180Z,10.77
2019-03-03T06:31:36.870Z,11.70
2019-03-03T06:34:05.785Z,12.10
2019-03-03T06:36:34.363Z,11.40
2019-03-03T06:39:03.157Z,10.63
2019-03-03T06:41:31.792Z,10.13
2019-03-03T06:44:00.374Z,9.93
2019-03-03T06:46:28.946Z,9.87
2019-03-03T06:48:57.585Z,9.63
2019-03-03T06:51:26.228Z,9.83
2019-03-03T06:53:54.852Z,9.17
2019-03-03T06:56:23.391Z,9.20
2019-03-03T06:58:52.063Z,8.43
2019-03-03T07:01:20.580Z,9.70
2019-03-03T07:03:49.218Z,7.20
2019-03-03T07:06:17.832Z,8.13
2019-03-03T07:08:46.488Z,7.90
2019-03-03T07:11:15.096Z,7.50
2019-03-03T07:13:43.660Z,7.57
2019-03-03T07:16:12.294Z,7.33
2019-03-03T07:18:40.955Z,7.83
2019-03-03T07:21:09.532Z,8.70
2019-03-03T07:23:38.218Z,9.17
2019-03-03T07:26:06.826Z,8.67
2019-03-03T07:28:35.471Z,10.20
2019-03-03T07:31:04.091Z,8.60
2019-03-03T07:33:32.943Z,6.10
2019-03-03T07:36:01.586Z,7.00
2019-03-03T07:38:30.287Z,5.80
2019-03-03T07:40:59.969Z,7.20
2019-03-03T07:43:28.603Z,6.67
2019-03-03T07:45:57.208Z,6.33
2019-03-03T07:48:25.775Z,5.60
2019-03-03T07:50:54.374Z,6.67
2019-03-03T07:53:23.041Z,8.43
2019-03-03T07:55:51.648Z,6.80
2019-03-03T07:58:20.249Z,5.93
2019-03-03T08:00:48.812Z,6.17
2019-03-03T08:03:17.475Z,6.60
2019-03-03T08:05:46.084Z,7.10
2019-03-03T08:08:14.757Z,6.27
2019-03-03T08:10:43.292Z,6.70
2019-03-03T08:13:11.988Z,6.60
2019-03-03T08:15:40.631Z,5.80
2019-03-03T08:18:09.205Z,5.53
2019-03-03T08:20:38.158Z,6.10
2019-03-03T08:23:06.820Z,6.30
2019-03-03T08:25:35.684Z,5.53
2019-03-03T08:28:04.613Z,5.00
2019-03-03T08:30:33.416Z,5.60
2019-03-03T08:33:02.022Z,5.27
2019-03-03T08:35:32.384Z,6.03
2019-03-03T08:38:00.976Z,5.70
2019-03-03T08:40:29.542Z,5.67
2019-03-03T08:43:04.109Z,5.50
2019-03-03T08:45:52.834Z,6.00
2019-03-03T08:48:26.096Z,5.80
2019-03-03T08:50:59.180Z,5.30
2019-03-03T08:53:45.852Z,5.57
2019-03-03T08:56:24.963Z,5.00
2019-03-03T08:58:57.963Z,6.27
2019-03-03T09:01:43.551Z,8.63
2019-03-03T09:04:13.821Z,5.97
2019-03-03T09:06:49.817Z,5.50
2019-03-03T09:09:20.032Z,8.00
2019-03-03T09:12:08.003Z,6.30
2019-03-03T09:14:47.348Z,12.00
2019-03-03T09:17:17.620Z,9.07
2019-03-03T09:19:53.384Z,8.17
2019-03-03T09:22:25.995Z,6.07
2019-03-03T09:24:56.237Z,5.57
2019-03-03T09:27:41.676Z,5.80
2019-03-03T09:30:16.341Z,5.77
2019-03-03T09:32:46.577Z,6.20
2019-03-03T09:35:22.873Z,4.90
2019-03-03T09:37:55.856Z,5.40
2019-03-03T09:40:34.147Z,5.20
2019-03-03T09:43:04.371Z,5.07
2019-03-03T09:45:35.003Z,6.23
2019-03-03T09:48:05.572Z,5.83
2019-03-03T09:50:35.775Z,6.40
2019-03-03T09:53:12.125Z,5.47
2019-03-03T09:56:00.502Z,5.33
2019-03-03T09:58:46.886Z,6.53
2019-03-03T10:01:17.160Z,6.20
2019-03-03T10:04:03.333Z,6.37
2019-03-03T10:06:36.778Z,8.70
2019-03-03T10:09:17.372Z,6.80
2019-03-03T10:11:53.572Z,7.03
2019-03-03T10:14:35.690Z,8.37
2019-03-03T10:17:15.472Z,6.80
2019-03-03T10:19:52.465Z,7.30
2019-03-03T10:22:29.192Z,6.53
2019-03-03T10:24:59.670Z,6.10
2019-03-03T10:27:38.657Z,6.40
2019-03-03T10:30:25.673Z,5.00
2019-03-03T10:33:12.303Z,8.50
2019-03-03T10:35:45.500Z,5.93
2019-03-03T10:38:15.945Z,5.50
2019-03-03T10:40:46.223Z,6.80
2019-03-03T10:43:19.786Z,5.27
2019-03-03T10:46:02.050Z,5.30
2019-03-03T10:48:32.484Z,6.90
2019-03-03T10:51:03.080Z,5.53
2019-03-03T10:53:33.390Z,5.17
2019-03-03T10:56:06.662Z,5.17
2019-03-03T10:58:37.366Z,5.83
2019-03-03T11:01:07.997Z,8.10
2019-03-03T11:03:44.283Z,5.60
2019-03-03T11:06:31.116Z,7.70
2019-03-03T11:09:01.377Z,4.57
2019-03-03T11:11:34.235Z,5.27
2019-03-03T11:14:15.396Z,4.67
2019-03-03T11:16:46.063Z,5.67
2019-03-03T11:19:32.434Z,4.87
2019-03-03T11:22:14.566Z,5.00
2019-03-03T11:24:51.160Z,4.60
2019-03-03T11:27:26.659Z,5.00
2019-03-03T11:30:00.472Z,4.00
2019-03-03T11:32:36.943Z,4.30
2019-03-03T11:35:08.195Z,4.80
2019-03-03T11:37:38.420Z,5.07
2019-03-03T11:40:11.889Z,4.60
2019-03-03T11:43:00.829Z,4.77
2019-03-03T11:45:33.946Z,5.23
2019-03-03T11:48:20.044Z,5.00
2019-03-03T11:50:53.289Z,4.30
2019-03-03T11:53:26.768Z,5.40
2019-03-03T11:56:05.909Z,5.53
2019-03-03T11:58:45.264Z,4.90
2019-03-03T12:01:35.198Z,4.83
2019-03-03T12:04:08.447Z,5.27
2019-03-03T12:06:41.693Z,5.13
2019-03-03T12:09:12.021Z,5.30
2019-03-03T12:11:48.542Z,5.53
2019-03-03T12:14:37.723Z,6.83
2019-03-03T12:17:09.776Z,5.20
2019-03-03T12:19:40.257Z,6.13
2019-03-03T12:22:26.687Z,6.87
2019-03-03T12:25:13.007Z,5.90
2019-03-03T12:27:49.055Z,5.47
2019-03-03T12:30:20.217Z,5.77
2019-03-03T12:33:08.875Z,6.73
2019-03-03T12:35:39.652Z,6.03
2019-03-03T12:38:09.900Z,5.80
2019-03-03T12:40:48.831Z,5.50
2019-03-03T12:43:22.064Z,6.13
2019-03-03T12:45:52.434Z,6.27
2019-03-03T12:48:22.643Z,5.80
2019-03-03T12:51:11.694Z,6.07
2019-03-03T12:53:42.093Z,5.33
2019-03-03T12:56:12.453Z,6.20
2019-03-03T12:58:43.097Z,5.53
2019-03-03T13:01:16.202Z,5.67
2019-03-03T13:03:58.725Z,5.30
2019-03-03T13:06:33.343Z,5.30
2019-03-03T13:09:09.745Z,6.20
2019-03-03T13:11:40.193Z,6.23
2019-03-03T13:14:13.561Z,5.70
2019-03-03T13:16:47.526Z,6.60
2019-03-03T13:19:32.814Z,6.50
2019-03-03T13:22:03.064Z,6.27
2019-03-03T13:24:36.571Z,5.13
2019-03-03T13:27:18.810Z,5.20
2019-03-03T13:29:52.064Z,4.87
2019-03-03T13:32:34.445Z,5.20
2019-03-03T13:35:06.573Z,5.63
2019-03-03T13:37:54.833Z,5.53
2019-03-03T13:40:34.564Z,4.73
2019-03-03T13:43:03.308Z,5.37
2019-03-03T13:45:32.460Z,5.00
2019-03-03T13:48:01.577Z,4.80
2019-03-03T13:50:30.340Z,4.87
2019-03-03T13:52:59.078Z,5.37
2019-03-03T13:55:27.867Z,5.07
2019-03-03T13:57:56.519Z,5.10
2019-03-03T14:00:25.256Z,4.93
2019-03-03T14:02:53.921Z,4.53
2019-03-03T14:05:23.074Z,4.77
2019-03-03T14:07:51.712Z,4.20
2019-03-03T14:10:20.956Z,4.80
2019-03-03T14:12:50.057Z,4.87
2019-03-03T14:15:19.927Z,5.47
2019-03-03T14:17:48.669Z,4.87
2019-03-03T14:20:19.725Z,4.17
2019-03-03T14:22:50.147Z,4.90
2019-03-03T14:25:19.731Z,5.13
2019-03-03T14:27:50.112Z,5.37
2019-03-03T14:30:21.972Z,5.60
2019-03-03T14:32:50.705Z,5.37
2019-03-03T14:35:20.279Z,5.60
2019-03-03T14:37:50.119Z,5.63
2019-03-03T14:40:22.707Z,5.70
2019-03-03T14:42:51.931Z,5.70
2019-03-03T14:45:21.191Z,5.60
2019-03-03T14:47:49.848Z,4.83
2019-03-03T14:50:23.127Z,4.93
2019-03-03T14:52:54.725Z,5.40
2019-03-03T14:55:24.371Z,5.83
2019-03-03T14:57:54.170Z,5.80
2019-03-03T15:00:26.833Z,5.67
2019-03-03T15:02:56.373Z,6.90
2019-03-03T15:05:25.036Z,5.30
2019-03-03T15:07:54.026Z,4.77
2019-03-03T15:10:22.686Z,5.83
2019-03-03T15:12:52.370Z,6.37
2019-03-03T15:15:24.366Z,6.10
2019-03-03T15:17:53.186Z,6.40
2019-03-03T15:20:22.287Z,5.90
2019-03-03T15:22:51.056Z,6.23
2019-03-03T15:25:19.842Z,5.90
2019-03-03T15:27:49.555Z,6.77
2019-03-03T15:30:21.399Z,6.73
2019-03-03T15:32:52.858Z,7.57
2019-03-03T15:35:21.642Z,7.07
2019-03-03T15:37:51.183Z,7.63
2019-03-03T15:40:26.755Z,6.63
2019-03-03T15:42:55.973Z,6.73
2019-03-03T15:45:27.177Z,7.20
2019-03-03T15:47:55.921Z,7.87
2019-03-03T15:50:25.850Z,7.30
2019-03-03T15:52:54.552Z,7.33
2019-03-03T15:55:25.808Z,8.17
2019-03-03T15:57:54.655Z,10.27
2019-03-03T16:00:29.899Z,8.80
2019-03-03T16:02:58.612Z,8.20
2019-03-03T16:05:27.498Z,8.93
2019-03-03T16:07:56.265Z,8.67
2019-03-03T16:10:27.014Z,8.43
2019-03-03T16:12:55.671Z,7.97
2019-03-03T16:15:24.583Z,9.77
2019-03-03T16:17:53.214Z,8.87
2019-03-03T16:20:25.478Z,8.93
2019-03-03T16:22:54.100Z,8.33
2019-03-03T16:25:24.068Z,8.40
2019-03-03T16:27:53.191Z,10.13
2019-03-03T16:30:23.167Z,8.60
2019-03-03T16:32:52.408Z,9.57
2019-03-03T16:35:22.028Z,8.47
2019-03-03T16:37:50.735Z,8.73
2019-03-03T16:40:21.850Z,9.50
2019-03-03T16:42:50.936Z,10.50
2019-03-03T16:45:20.920Z,9.10
2019-03-03T16:47:50.080Z,8.47
2019-03-03T16:50:20.462Z,8.60
2019-03-03T16:52:49.216Z,7.80
2019-03-03T16:55:19.253Z,9.27
2019-03-03T16:57:48.192Z,9.67
2019-03-03T17:00:22.644Z,8.57
2019-03-03T17:02:51.874Z,8.53
2019-03-03T17:05:22.759Z,9.57
2019-03-03T17:07:51.506Z,8.50
2019-03-03T17:10:20.349Z,8.80
2019-03-03T17:12:49.765Z,8.30
2019-03-03T17:15:20.853Z,10.00
2019-03-03T17:17:50.118Z,8.60
2019-03-03T17:20:19.217Z,8.37
2019-03-03T17:22:47.892Z,9.43
2019-03-03T17:25:23.295Z,8.57
2019-03-03T17:28:07.665Z,8.50
2019-03-03T17:30:39.903Z,9.10
2019-03-03T17:33:09.092Z,8.70
2019-03-03T17:35:37.732Z,7.90
2019-03-03T17:38:06.506Z,8.30
2019-03-03T17:40:35.953Z,8.30
2019-03-03T17:43:04.672Z,8.30
2019-03-03T17:45:33.532Z,8.37
2019-03-03T17:48:02.243Z,8.43
2019-03-03T17:50:31.606Z,15.20
2019-03-03T17:53:00.932Z,10.07
2019-03-03T17:55:29.661Z,11.33
2019-03-03T17:57:58.528Z,10.20
2019-03-03T18:00:36.149Z,11.63
2019-03-03T18:03:05.948Z,12.30
2019-03-03T18:05:35.047Z,9.93
2019-03-03T18:08:04.366Z,10.60
2019-03-03T18:10:34.365Z,9.03
2019-03-03T18:13:03.128Z,8.70
2019-03-03T18:15:32.033Z,7.30
2019-03-03T18:18:00.759Z,8.97
2019-03-03T18:20:29.466Z,7.80
2019-03-03T18:22:58.180Z,8.10
2019-03-03T18:25:26.846Z,7.63
2019-03-03T18:27:55.703Z,9.60
2019-03-03T18:30:28.750Z,8.20
2019-03-03T18:32:57.917Z,8.20
2019-03-03T18:35:27.117Z,7.80
2019-03-03T18:37:57.383Z,7.80
2019-03-03T18:40:28.148Z,7.40
2019-03-03T18:42:57.304Z,7.80
2019-03-03T18:45:26.211Z,10.10
2019-03-03T18:47:54.914Z,8.67
2019-03-03T18:50:30.869Z,9.87
2019-03-03T18:53:00.122Z,8.27
2019-03-03T18:55:29.018Z,9.40
2019-03-03T18:57:57.766Z,11.90
2019-03-03T19:00:28.638Z,7.77
2019-03-03T19:02:58.383Z,7.40
2019-03-03T19:05:27.130Z,8.27
2019-03-03T19:07:55.948Z,7.27
2019-03-03T19:10:30.315Z,8.80
2019-03-03T19:12:58.985Z,11.10
2019-03-03T19:15:27.631Z,9.63
2019-03-03T19:17:56.359Z,7.80
2019-03-03T19:20:26.820Z,7.77
2019-03-03T19:22:55.394Z,7.93
2019-03-03T19:25:24.393Z,5.77
2019-03-03T19:27:53.080Z,7.27
2019-03-03T19:30:24.220Z,7.60
2019-03-03T19:33:01.994Z,6.33
2019-03-03T19:35:30.896Z,6.57
2019-03-03T19:37:59.460Z,8.40
2019-03-03T19:40:28.396Z,8.37
2019-03-03T19:42:57.122Z,8.00
2019-03-03T19:45:31.702Z,6.43
2019-03-03T19:48:00.925Z,6.40
2019-03-03T19:50:30.224Z,11.70
2019-03-03T19:52:59.251Z,7.50
2019-03-03T19:55:28.314Z,7.83
2019-03-03T19:57:57.692Z,6.80
2019-03-03T20:00:35.431Z,6.57
2019-03-03T20:03:02.605Z,6.77
2019-03-03T20:05:31.811Z,7.40
2019-03-03T20:08:00.497Z,6.97
2019-03-03T20:10:29.530Z,7.00
2019-03-03T20:12:58.392Z,7.20
2019-03-03T20:15:28.642Z,7.07
2019-03-03T20:17:58.128Z,7.30
2019-03-03T20:20:27.848Z,7.10
2019-03-03T20:22:57.294Z,9.67
2019-03-03T20:25:26.369Z,6.67
2019-03-03T20:27:55.946Z,7.93
2019-03-03T20:30:25.660Z,7.57
2019-03-03T20:32:55.400Z,8.53
2019-03-03T20:35:24.351Z,9.07
2019-03-03T20:37:53.252Z,6.20
2019-03-03T20:40:27.394Z,9.90
2019-03-03T20:42:56.671Z,7.27
2019-03-03T20:45:29.703Z,6.43
2019-03-03T20:48:00.866Z,7.20
2019-03-03T20:50:29.655Z,7.43
2019-03-03T20:52:59.649Z,6.60
2019-03-03T20:55:33.150Z,7.00
2019-03-03T20:58:02.597Z,5.73
2019-03-03T21:00:32.476Z,7.33
2019-03-03T21:03:01.210Z,6.30
2019-03-03T21:05:31.302Z,6.00
2019-03-03T21:08:00.720Z,5.97
2019-03-03T21:10:35.558Z,6.30
2019-03-03T21:13:04.704Z,6.13
2019-03-03T21:15:33.388Z,5.07
2019-03-03T21:18:02.121Z,4.93
2019-03-03T21:20:31.458Z,5.40
2019-03-03T21:23:00.581Z,5.90
2019-03-03T21:25:29.691Z,5.67
2019-03-03T21:27:59.071Z,6.13
2019-03-03T21:30:28.710Z,5.40
2019-03-03T21:32:58.657Z,5.20
2019-03-03T21:35:27.310Z,5.53
2019-03-03T21:37:56.214Z,4.40
2019-03-03T21:40:28.678Z,4.70
2019-03-03T21:42:57.630Z,4.33
2019-03-03T21:45:27.849Z,4.30
2019-03-03T21:47:57.393Z,5.67
2019-03-03T21:50:27.623Z,4.77
2019-03-03T21:52:56.744Z,4.47
2019-03-03T21:55:25.479Z,4.40
2019-03-03T21:57:54.024Z,4.27
2019-03-03T22:00:31.469Z,5.23
2019-03-03T22:03:00.355Z,4.17
2019-03-03T22:05:29.002Z,4.60
2019-03-03T22:07:57.723Z,5.37
2019-03-03T22:10:29.578Z,4.60
2019-03-03T22:13:00.606Z,4.23
2019-03-03T22:15:29.331Z,4.70
2019-03-03T22:17:58.611Z,4.20
2019-03-03T22:20:27.164Z,5.00
2019-03-03T22:22:55.792Z,4.67
2019-03-03T22:25:24.662Z,5.30
2019-03-03T22:27:53.248Z,4.30
2019-03-03T22:30:22.990Z,4.83
2019-03-03T22:32:51.722Z,4.13
2019-03-03T22:35:20.349Z,4.97
2019-03-03T22:37:48.961Z,4.30
2019-03-03T22:40:19.758Z,5.60
2019-03-03T22:42:48.694Z,4.43
2019-03-03T22:45:18.347Z,4.93
2019-03-03T22:47:46.875Z,4.60
2019-03-03T22:50:16.959Z,5.03
2019-03-03T22:52:46.509Z,4.53
2019-03-03T22:55:16.843Z,5.90
2019-03-03T22:57:45.527Z,4.93
2019-03-03T23:00:51.037Z,4.40
2019-03-03T23:03:28.909Z,4.83
2019-03-03T23:06:00.809Z,4.67
2019-03-03T23:08:35.333Z,4.47
2019-03-03T23:11:09.581Z,3.97
2019-03-03T23:13:41.495Z,4.43
2019-03-03T23:16:38.833Z,4.50
2019-03-03T23:19:38.332Z,4.50
2019-03-03T23:22:18.756Z,4.57
2019-03-03T23:25:16.073Z,4.27
2019-03-03T23:27:44.642Z,3.80
2019-03-03T23:30:13.166Z,4.00
2019-03-03T23:32:41.799Z,4.07
2019-03-03T23:35:10.391Z,4.80
2019-03-03T23:37:38.962Z,3.97
2019-03-03T23:40:08.087Z,4.30
2019-03-03T23:42:36.686Z,4.00
2019-03-03T23:45:08.281Z,4.87
2019-03-03T23:47:36.920Z,3.83
2019-03-03T23:50:07.924Z,4.50
2019-03-03T23:52:36.894Z,4.43
2019-03-03T23:55:07.593Z,4.50
2019-03-03T23:57:36.193Z,4.40
